Jump to content


Photo

[Tópicos Mesclados] Tempo ruim em Confins + Confins fechado! + CNF com muitos voo CLD


  • You cannot start a new topic
  • Please log in to reply
9 replies to this topic

#1 Junio Gracielo

Junio Gracielo
  • Usuários
  • 2,522 posts
  • Gender:Male
  • Location:Vitória/ES/Brasil
  • Cidade/UF/País:Vitória
  • Data de Nascimento:23/11/1980

Posted 29 de January de 2012 - 16:31

METAR SBCF 291900Z 06015KT 5000 TS BR SCT006 BKN035 FEW040CB 17/16 Q1013 RERA=
O Centro Brasília tava reportando órbita de várias aeronaves, parece que algumas tentaram pousar e não conseguiram...
  • PR-VBB likes this

#2 Junio Gracielo

Junio Gracielo
  • Usuários
  • 2,522 posts
  • Gender:Male
  • Location:Vitória/ES/Brasil
  • Cidade/UF/País:Vitória
  • Data de Nascimento:23/11/1980

Posted 30 de January de 2012 - 05:48

Segundo informações do Centro Brasília Confins está fechado no momento, há várias aeronaves em órbita e outras alternando.

METAR SBCF 300800Z 00000KT 0200 R16///// R34///// FG SCT030 SCT100 14/14 Q1014=


  • PR-VBB likes this

#3 SOUSA CPV

SOUSA CPV
  • Usuários
  • 3,862 posts
  • Gender:Male
  • Location:Campina Grande
  • Interests:Conhecimento e troca de informações
  • Cidade/UF/País:Campina Grande / Paraíba / Brasil
  • Data de Nascimento:02/04/1975

Posted 30 de January de 2012 - 09:29

O que tá havendo em CNF, o sistema Infraero mostra MUITOS voo CLD e atrasados.
Muitos atrasos como metereologico. Chuva na região ou sul do Brasil???

#4 PR-JJV

PR-JJV
  • Usuários
  • 6,962 posts
  • Gender:Male
  • Cidade/UF/País:Fort Lauderdale / FL / USA
  • Data de Nascimento:01/01/0001

Posted 30 de January de 2012 - 09:35

http://forum.contato...onfins-fechado/

que por sua vez poderia ter sido postado no mesmo tópico...

http://forum.contato...uim-em-confins/

Resumo: CNF esta fechado hoje de manhã devido as péssimas condições meteorológicas desde ontem. E 3 tópicos que poderiam se resumir a 1.

#5 PR-AYY

PR-AYY
  • Usuários
  • 324 posts
  • Gender:Male
  • Cidade/UF/País:Uberaba/MG/Brasil
  • Data de Nascimento:23/09/1988

Posted 30 de January de 2012 - 09:37

METAR SBCF 301200Z 14006KT 5000 BR SCT010 19/16 Q1016=

#6 E175

E175
  • Usuários
  • 16,428 posts
  • Gender:Male
  • Cidade/UF/País:Ankara
  • Data de Nascimento:15/09/1987

Posted 30 de January de 2012 - 10:00

Hoje pela manhã foi só o nevoeiro mesmo. Ontem a noite que caiu um chuvão. O tempo está ótimo agora, céu limpo com poucas nuvens.
  • Safe Flight and PR-JJV like this

#7 spitfire

spitfire
  • Usuários
  • 2,497 posts
  • Gender:Male
  • Location:3nm de PLU
  • Cidade/UF/País:Belo Horizonte
  • Data de Nascimento:11/12/1913

Posted 30 de January de 2012 - 10:32

com a chuva q caiu ontem na rmbh, no inicio da noite e a noite com atmosfera calma, so podemos esperar nevoeiro na regiao de cnf mesmo, que inclusive, continuou recebendo chuva leve ao longo da noite.
no momento, nem parece q teve pancadao ontem e nevoeiro mais cedo =)

segue a vida
  • Safe Flight and T-6D like this

#8 FlávioBHZ

FlávioBHZ
  • Membro Honorário
  • 9,311 posts
  • Gender:Male
  • Location:Belo Horizonte
  • Cidade/UF/País:Belo Horizonte/MG/Brasil
  • Data de Nascimento:30/12/1979

Posted 30 de January de 2012 - 10:47

http://forum.contato...onfins-fechado/

que por sua vez poderia ter sido postado no mesmo tópico...

http://forum.contato...uim-em-confins/

Resumo: CNF esta fechado hoje de manhã devido as péssimas condições meteorológicas desde ontem. E 3 tópicos que poderiam se resumir a 1.

Mesclagem dos tópicos devidamente feita! ;)

Um abraço.
  • PR-JJV and PR-VBB like this

#9 A320PRMHZ

A320PRMHZ
  • Usuários
  • 1,594 posts
  • Gender:Male
  • Location:Sao Paulo
  • Cidade/UF/País:Sao Paulo/SP/Brasil
  • Data de Nascimento:03/02/1978

Posted 30 de January de 2012 - 21:45

Pousei hj em CNF e foi um caos... 2h em BSB aguardando CNF "abrir". Quando pousamos, ficamos 35 min com motor girando, aguardando numa taxiway um lugar para estacionar.

#10 Junio Gracielo

Junio Gracielo
  • Usuários
  • 2,522 posts
  • Gender:Male
  • Location:Vitória/ES/Brasil
  • Cidade/UF/País:Vitória
  • Data de Nascimento:23/11/1980

Posted 27 de March de 2012 - 19:06

Sexta passada meu voo procedente de VIX arremeteu em CNF devido mau tempo, foi sinistro isso sim pqp.